Time;durP1;ratioP1;P1;durP2;ratioP2;P2;SDS_P1;SDS_P2;PMS_P1;PMS_P2;Temp;Humidity;BMP_temperature;BMP_pressure;BME280_temperature;BME280_humidity;BME280_pressure;Samples;Min_cycle;Max_cycle;Signal;HPM_P1;HPM_P2
2022/06/27 00:00:10;;;;;;;18.58;10.38;;;;;;;16.72;97.81;101487.38;5071516;28;20040;-70
2022/06/27 00:02:38;;;;;;;21.10;10.18;;;;;;;16.67;97.64;101484.16;5072779;28;20905;-69
2022/06/27 00:05:05;;;;;;;18.60;9.88;;;;;;;16.69;98.20;101490.25;5073527;28;20036;-69
2022/06/27 00:07:30;;;;;;;17.73;9.38;;;;;;;16.64;98.32;101495.16;5055910;28;20040;-69
2022/06/27 00:09:56;;;;;;;17.17;10.15;;;;;;;16.70;98.65;101491.97;5074183;28;20070;-69
2022/06/27 00:12:21;;;;;;;13.20;10.15;;;;;;;16.79;98.79;101502.06;5073373;28;20043;-69
2022/06/27 00:14:47;;;;;;;19.45;11.00;;;;;;;16.86;98.96;101505.09;5073262;28;20038;-69
2022/06/27 00:17:12;;;;;;;18.70;9.95;;;;;;;16.88;98.85;101513.94;5072509;28;20063;-69
2022/06/27 00:19:38;;;;;;;15.32;9.85;;;;;;;16.89;99.13;101514.81;5072592;28;20057;-70
2022/06/27 00:22:04;;;;;;;16.25;9.95;;;;;;;16.68;98.75;101509.25;5073390;28;20043;-69
2022/06/27 00:24:30;;;;;;;14.43;9.38;;;;;;;16.57;100.00;101491.25;5074142;28;20938;-69
2022/06/27 00:26:56;;;;;;;13.40;8.88;;;;;;;16.64;100.00;101495.16;5074244;28;20024;-69
2022/06/27 00:29:22;;;;;;;14.15;9.20;;;;;;;16.49;99.13;101499.91;5073269;28;20105;-70
2022/06/27 00:31:48;;;;;;;14.77;9.60;;;;;;;16.44;99.14;101498.53;5041246;28;20565;-70
2022/06/27 00:34:13;;;;;;;21.40;8.27;;;;;;;16.42;98.92;101503.19;5051972;28;20098;-69
2022/06/27 00:36:39;;;;;;;15.68;9.15;;;;;;;16.38;99.29;101502.56;5060117;28;20821;-71
2022/06/27 00:39:04;;;;;;;17.08;8.10;;;;;;;16.39;98.65;101508.81;5069876;28;20945;-69
2022/06/27 00:41:30;;;;;;;13.10;7.70;;;;;;;16.36;97.98;101511.72;5073366;28;20047;-70
2022/06/27 00:43:55;;;;;;;12.15;7.13;;;;;;;16.37;98.31;101514.31;5054280;28;20040;-70
2022/06/27 00:46:21;;;;;;;13.70;7.35;;;;;;;16.49;98.81;101520.59;5072348;28;20036;-71
2022/06/27 00:48:47;;;;;;;13.05;7.65;;;;;;;16.46;98.56;101515.41;5072527;28;20074;-71
2022/06/27 00:51:12;;;;;;;14.55;7.88;;;;;;;16.43;98.40;101529.13;5071975;28;20131;-72
2022/06/27 00:53:38;;;;;;;13.23;7.55;;;;;;;16.53;98.65;101536.38;5072703;28;20043;-70
2022/06/27 00:56:05;;;;;;;13.65;8.25;;;;;;;16.57;98.00;101537.00;5053865;28;20034;-70
2022/06/27 00:58:30;;;;;;;14.32;8.25;;;;;;;16.56;97.16;101528.06;5072217;28;20036;-70
2022/06/27 01:00:56;;;;;;;18.63;7.78;;;;;;;16.66;98.13;101528.19;5071762;28;20079;-70
2022/06/27 01:03:22;;;;;;;16.60;8.93;;;;;;;16.69;97.93;101527.09;5052668;28;20117;-70
2022/06/27 01:05:53;;;;;;;14.05;7.95;;;;;;;16.71;98.37;101526.03;5072634;28;20032;-70
2022/06/27 01:08:21;;;;;;;14.20;8.18;;;;;;;16.80;99.20;101537.94;5072055;28;20067;-70
2022/06/27 01:10:47;;;;;;;10.93;7.95;;;;;;;16.82;98.62;101544.94;5054596;28;20044;-70
2022/06/27 01:13:14;;;;;;;12.82;8.05;;;;;;;16.86;99.53;101541.97;5053647;28;20032;-70
2022/06/27 01:15:45;;;;;;;14.23;8.77;;;;;;;16.90;100.00;101549.69;5054383;28;20042;-70
2022/06/27 01:18:12;;;;;;;13.60;8.10;;;;;;;16.95;99.11;101555.56;5053210;28;20032;-70
2022/06/27 01:20:41;;;;;;;14.20;8.73;;;;;;;16.93;98.72;101541.38;5077715;28;20051;-70
2022/06/27 01:23:07;;;;;;;12.75;7.88;;;;;;;17.02;99.25;101534.41;5082210;28;20036;-70
2022/06/27 01:25:35;;;;;;;15.48;9.02;;;;;;;16.97;99.70;101539.31;5071621;28;20032;-70
2022/06/27 01:28:02;;;;;;;13.30;8.65;;;;;;;16.87;99.70;101541.00;5085194;28;20058;-70
2022/06/27 01:30:28;;;;;;;12.43;8.25;;;;;;;16.89;100.00;101539.06;5054244;28;20399;-70
2022/06/27 01:32:55;;;;;;;11.00;8.10;;;;;;;16.90;100.00;101541.63;5071570;28;20094;-70
2022/06/27 01:35:22;;;;;;;16.77;7.75;;;;;;;16.91;99.43;101532.53;5053592;28;20055;-70
2022/06/27 01:37:47;;;;;;;16.05;8.15;;;;;;;16.89;98.95;101518.34;5055421;28;20024;-69
2022/06/27 01:40:14;;;;;;;13.35;8.35;;;;;;;16.85;99.11;101519.56;5054737;28;20791;-70
2022/06/27 01:42:44;;;;;;;10.45;7.57;;;;;;;16.77;100.00;101524.72;5053561;28;20051;-70
2022/06/27 01:45:11;;;;;;;13.43;7.68;;;;;;;16.72;100.00;101525.06;5067521;28;20041;-70
2022/06/27 01:47:38;;;;;;;13.18;8.30;;;;;;;16.73;100.00;101520.53;5081304;28;20047;-70
2022/06/27 01:50:09;;;;;;;15.05;8.45;;;;;;;16.79;100.00;101512.84;5067085;28;20126;-69
2022/06/27 01:52:41;;;;;;;11.98;7.97;;;;;;;16.85;100.00;101514.19;5070976;28;20657;-70
2022/06/27 01:55:06;;;;;;;14.98;8.18;;;;;;;16.86;100.00;101521.28;5070013;28;20089;-70
2022/06/27 01:57:35;;;;;;;14.00;8.75;;;;;;;16.81;100.00;101512.69;5054618;28;20405;-70
2022/06/27 02:00:03;;;;;;;15.77;9.25;;;;;;;16.77;100.00;101512.09;5061450;28;20028;-72
2022/06/27 02:02:37;;;;;;;20.30;9.40;;;;;;;16.82;100.00;101507.22;5072052;28;20040;-69
2022/06/27 02:05:03;;;;;;;11.32;9.10;;;;;;;16.80;100.00;101506.47;5070687;28;20725;-69
2022/06/27 02:07:28;;;;;;;15.65;9.00;;;;;;;16.80;100.00;101502.91;5072521;28;20547;-70
2022/06/27 02:09:54;;;;;;;13.63;9.75;;;;;;;16.86;100.00;101482.72;5073043;28;20693;-70
2022/06/27 02:12:23;;;;;;;16.33;10.43;;;;;;;16.75;100.00;101494.34;5055438;28;20043;-70
2022/06/27 02:14:52;;;;;;;16.25;10.18;;;;;;;16.68;100.00;101487.69;5069138;28;20036;-70
2022/06/27 02:17:26;;;;;;;18.95;8.90;;;;;;;16.71;100.00;101487.44;5061159;28;20024;-70
2022/06/27 02:19:52;;;;;;;15.68;9.80;;;;;;;16.80;100.00;101476.81;5091501;28;20043;-70
2022/06/27 02:22:17;;;;;;;14.18;10.00;;;;;;;16.76;100.00;101478.03;5075386;28;20426;-70
2022/06/27 02:24:43;;;;;;;16.85;8.82;;;;;;;16.84;100.00;101469.38;5075941;28;20143;-69
2022/06/27 02:27:10;;;;;;;15.25;8.85;;;;;;;16.72;100.00;101473.91;5075005;28;20036;-69
2022/06/27 02:29:37;;;;;;;13.90;9.68;;;;;;;16.71;100.00;101469.47;5075491;28;20054;-70
2022/06/27 02:32:04;;;;;;;21.80;9.77;;;;;;;16.63;100.00;101477.28;5075064;28;20806;-71
2022/06/27 02:34:31;;;;;;;16.33;9.82;;;;;;;16.65;100.00;101475.31;5050755;28;20106;-70
2022/06/27 02:36:58;;;;;;;19.63;10.05;;;;;;;16.69;100.00;101468.72;5031625;28;20051;-69
2022/06/27 02:39:28;;;;;;;14.30;9.48;;;;;;;16.66;100.00;101466.25;5040779;28;20106;-70
2022/06/27 02:41:58;;;;;;;13.05;9.45;;;;;;;16.72;100.00;101473.91;5057821;28;20832;-69
2022/06/27 02:44:26;;;;;;;18.55;10.70;;;;;;;16.75;100.00;101472.78;5040029;28;21127;-69
2022/06/27 02:46:52;;;;;;;12.40;9.80;;;;;;;16.77;100.00;101462.78;5074367;28;20040;-69
2022/06/27 02:49:19;;;;;;;14.20;10.15;;;;;;;16.74;100.00;101461.16;5036152;28;20033;-69
2022/06/27 02:52:18;;;;;;;17.85;9.63;;;;;;;16.79;100.00;101463.50;5040871;28;20044;-69
2022/06/27 02:55:04;;;;;;;15.18;10.15;;;;;;;16.70;100.00;101442.63;5041223;28;20063;-69
2022/06/27 02:57:59;;;;;;;18.67;10.98;;;;;;;16.64;100.00;101427.81;5040903;28;20041;-69
2022/06/27 03:00:29;;;;;;;14.93;10.10;;;;;;;16.60;100.00;101429.03;5058484;28;20037;-69
2022/06/27 03:02:57;;;;;;;17.23;10.98;;;;;;;16.49;100.00;101434.44;5040384;28;20031;-69
2022/06/27 03:05:26;;;;;;;22.30;11.43;;;;;;;16.41;100.00;101440.41;5072999;28;20036;-69
2022/06/27 03:07:52;;;;;;;17.25;11.63;;;;;;;16.61;100.00;101419.13;5060241;28;20033;-69
2022/06/27 03:10:18;;;;;;;17.05;11.02;;;;;;;16.67;100.00;101426.75;5056660;28;20764;-70
2022/06/27 03:12:45;;;;;;;15.10;9.90;;;;;;;16.66;100.00;101423.16;5040836;28;20090;-69
2022/06/27 03:15:12;;;;;;;17.35;11.25;;;;;;;16.65;100.00;101418.75;5072886;28;20075;-69
2022/06/27 03:17:38;;;;;;;20.42;11.18;;;;;;;16.63;100.00;101407.28;5058553;28;20610;-70
2022/06/27 03:20:26;;;;;;;19.40;11.43;;;;;;;16.60;100.00;101402.13;5057570;28;20049;-69
2022/06/27 03:23:10;;;;;;;15.98;11.43;;;;;;;16.64;100.00;101417.06;5058407;28;20345;-69
2022/06/27 03:25:40;;;;;;;18.77;11.45;;;;;;;16.70;100.00;101418.41;5075517;28;20165;-69
2022/06/27 03:28:08;;;;;;;17.98;11.88;;;;;;;16.73;100.00;101413.66;5039994;28;20041;-69
2022/06/27 03:30:34;;;;;;;22.77;11.82;;;;;;;16.76;100.00;101420.63;5057817;28;20035;-69
2022/06/27 03:33:00;;;;;;;19.50;11.75;;;;;;;16.70;100.00;101419.25;5057206;28;20865;-69
2022/06/27 03:35:32;;;;;;;21.20;12.68;;;;;;;16.78;100.00;101408.75;5045585;28;20044;-69
2022/06/27 03:37:58;;;;;;;16.08;11.55;;;;;;;16.60;100.00;101412.88;5057032;28;20498;-70
2022/06/27 03:40:24;;;;;;;24.30;13.32;;;;;;;16.49;100.00;101402.13;5075492;28;20039;-69
2022/06/27 03:42:51;;;;;;;20.25;12.20;;;;;;;16.43;100.00;101384.63;5058109;28;20565;-70
2022/06/27 03:45:17;;;;;;;16.40;12.25;;;;;;;16.53;100.00;101390.13;5057822;28;20032;-70
2022/06/27 03:47:58;;;;;;;20.45;12.45;;;;;;;16.47;100.00;101391.47;5076639;28;20058;-71
2022/06/27 03:50:31;;;;;;;22.92;14.30;;;;;;;16.50;100.00;101387.69;5076997;28;20047;-71
2022/06/27 03:52:57;;;;;;;19.88;11.55;;;;;;;16.45;100.00;101384.50;5057257;28;20117;-68
2022/06/27 03:55:24;;;;;;;18.13;12.80;;;;;;;16.53;100.00;101377.53;5075553;28;20038;-69
2022/06/27 03:57:57;;;;;;;20.58;12.88;;;;;;;16.52;100.00;101385.75;5040201;28;20043;-69
2022/06/27 04:00:31;;;;;;;22.00;13.07;;;;;;;16.53;100.00;101387.44;5056375;28;20182;-69
2022/06/27 04:02:58;;;;;;;20.20;13.57;;;;;;;16.65;100.00;101377.50;5024835;28;20036;-69
2022/06/27 04:05:32;;;;;;;20.50;14.07;;;;;;;16.64;100.00;101383.88;5055222;28;20418;-69
2022/06/27 04:07:58;;;;;;;20.42;13.15;;;;;;;16.59;100.00;101376.19;5055053;28;20498;-70
2022/06/27 04:10:24;;;;;;;23.27;13.15;;;;;;;16.60;100.00;101385.09;5043029;28;20113;-69
2022/06/27 04:12:49;;;;;;;22.27;12.82;;;;;;;16.66;100.00;101390.84;5055838;28;20067;-70
2022/06/27 04:15:34;;;;;;;18.50;12.80;;;;;;;16.62;100.00;101394.78;5058297;28;20089;-69
2022/06/27 04:18:25;;;;;;;23.52;14.20;;;;;;;16.64;100.00;101402.75;5074147;28;20070;-69
2022/06/27 04:21:29;;;;;;;22.83;14.10;;;;;;;16.71;100.00;101391.38;5073936;28;20043;-69
2022/06/27 04:24:24;;;;;;;20.98;14.50;;;;;;;16.80;100.00;101384.38;5050587;28;20074;-69
2022/06/27 04:26:56;;;;;;;20.55;14.10;;;;;;;16.83;100.00;101385.00;5066707;28;20891;-69
2022/06/27 04:29:21;;;;;;;17.70;14.30;;;;;;;16.82;100.00;101390.53;5066743;28;20294;-69
2022/06/27 04:31:47;;;;;;;22.60;14.30;;;;;;;16.86;100.00;101393.81;5033472;28;20057;-69
2022/06/27 04:34:13;;;;;;;26.92;15.15;;;;;;;16.86;100.00;101393.81;5049736;28;20049;-69
2022/06/27 04:36:45;;;;;;;23.42;15.30;;;;;;;16.82;100.00;101396.78;5022779;28;20060;-69
2022/06/27 04:39:15;;;;;;;19.10;13.10;;;;;;;16.87;100.00;101390.13;5030755;28;20041;-70
2022/06/27 04:42:08;;;;;;;24.42;15.20;;;;;;;16.91;100.00;101411.31;5022396;28;20100;-70
2022/06/27 04:44:34;;;;;;;24.02;14.95;;;;;;;16.96;100.00;101402.84;5004071;28;20026;-70
2022/06/27 04:47:06;;;;;;;22.40;15.18;;;;;;;16.96;100.00;101406.41;5023522;28;20041;-70
2022/06/27 04:49:42;;;;;;;26.70;16.15;;;;;;;17.12;100.00;101389.88;5005550;28;20143;-70
2022/06/27 04:52:08;;;;;;;20.23;14.15;;;;;;;17.24;100.00;101388.84;4994850;28;20060;-69
2022/06/27 04:54:36;;;;;;;24.35;16.83;;;;;;;17.46;100.00;101389.75;5013802;28;20041;-69
2022/06/27 04:57:03;;;;;;;24.23;15.43;;;;;;;17.31;100.00;101384.63;5012427;28;20042;-69
2022/06/27 04:59:31;;;;;;;22.15;14.52;;;;;;;17.22;100.00;101381.84;5010246;28;20144;-70
2022/06/27 05:02:08;;;;;;;24.77;14.98;;;;;;;17.17;100.00;101382.25;5034778;28;20036;-69
2022/06/27 05:04:33;;;;;;;25.65;14.80;;;;;;;17.15;100.00;101381.50;5033705;28;20451;-69
2022/06/27 05:06:59;;;;;;;22.52;14.63;;;;;;;17.18;100.00;101372.31;5023884;28;20039;-69
2022/06/27 05:09:26;;;;;;;26.60;14.30;;;;;;;17.16;100.00;101358.97;5035285;28;20731;-70
2022/06/27 05:11:54;;;;;;;23.60;14.50;;;;;;;17.31;100.00;101373.00;5018573;28;20064;-69
2022/06/27 05:14:20;;;;;;;21.83;13.80;;;;;;;17.35;100.00;101391.50;5027837;28;20143;-69
2022/06/27 05:16:51;;;;;;;;;;;;;;;17.29;100.00;101401.94;5022951;28;20119;-69
2022/06/27 05:19:21;;;;;;;21.83;14.68;;;;;;;17.32;99.97;101393.59;5055227;28;19951;-70
2022/06/27 05:21:49;;;;;;;25.00;13.90;;;;;;;17.16;100.00;101395.84;5021040;28;20029;-70
2022/06/27 05:24:17;;;;;;;23.92;13.95;;;;;;;17.17;100.00;101397.53;5037129;28;20055;-70
2022/06/27 05:26:46;;;;;;;24.05;14.80;;;;;;;17.26;100.00;101381.47;5086292;22;20455;-67
2022/06/27 05:29:12;;;;;;;27.85;14.93;;;;;;;17.26;100.00;101377.91;5033697;28;20900;-70
2022/06/27 05:31:37;;;;;;;27.70;14.05;;;;;;;17.29;100.00;101375.84;5069050;28;20024;-68
2022/06/27 05:34:03;;;;;;;18.17;13.27;;;;;;;16.97;100.00;101364.19;5049761;28;20765;-68
2022/06/27 05:36:29;;;;;;;21.58;14.07;;;;;;;17.02;100.00;101361.97;5049812;28;20024;-68
2022/06/27 05:38:55;;;;;;;21.58;14.90;;;;;;;17.13;100.00;101358.38;5052469;28;20474;-67
2022/06/27 05:41:21;;;;;;;27.42;14.73;;;;;;;17.23;100.00;101354.78;5051489;28;20467;-68
2022/06/27 05:43:51;;;;;;;27.58;14.93;;;;;;;17.19;100.00;101356.03;5069620;28;20040;-68
2022/06/27 05:46:19;;;;;;;23.75;15.98;;;;;;;17.48;100.00;101353.59;5018218;28;20212;-68
2022/06/27 05:49:03;;;;;;;27.33;15.98;;;;;;;17.52;100.00;101357.75;5063017;28;20033;-68
2022/06/27 05:51:41;;;;;;;25.23;15.15;;;;;;;17.65;99.87;101364.78;5056058;28;20890;-68
2022/06/27 05:54:09;;;;;;;20.10;14.38;;;;;;;17.32;100.00;101359.41;5069024;28;20041;-68
2022/06/27 05:56:35;;;;;;;22.80;14.20;;;;;;;17.33;100.00;101366.50;5036102;28;20040;-68
2022/06/27 05:59:02;;;;;;;21.45;14.48;;;;;;;17.36;100.00;101370.78;5036288;28;20043;-68
2022/06/27 06:01:28;;;;;;;26.98;15.52;;;;;;;17.65;99.62;101378.28;5036490;28;20462;-67
2022/06/27 06:03:56;;;;;;;24.02;14.32;;;;;;;17.89;96.69;101394.25;5053852;28;20469;-68
2022/06/27 06:06:22;;;;;;;20.13;13.95;;;;;;;18.08;96.52;101407.88;5054270;28;20044;-68
2022/06/27 06:08:48;;;;;;;21.00;13.35;;;;;;;18.33;93.98;101425.53;5055357;28;20029;-67
2022/06/27 06:11:14;;;;;;;19.83;13.13;;;;;;;18.80;92.91;101442.13;5036196;28;20920;-67
2022/06/27 06:13:40;;;;;;;21.20;14.20;;;;;;;19.20;90.92;101455.63;5038856;28;20438;-67
2022/06/27 06:16:06;;;;;;;15.40;11.73;;;;;;;19.22;90.10;101458.19;5035089;28;20709;-68
2022/06/27 06:18:33;;;;;;;19.90;12.55;;;;;;;19.17;89.25;101473.97;5054829;28;20312;-67
2022/06/27 06:21:00;;;;;;;20.35;12.85;;;;;;;19.05;90.16;101479.50;5053440;28;20046;-67
2022/06/27 06:23:27;;;;;;;18.17;13.00;;;;;;;19.07;89.41;101472.09;5063660;28;20718;-67
2022/06/27 06:25:53;;;;;;;19.20;12.63;;;;;;;18.84;90.63;101468.75;5050421;28;20029;-68
2022/06/27 06:28:19;;;;;;;19.45;13.40;;;;;;;18.89;91.42;101462.94;5059363;28;20036;-68
2022/06/27 06:30:45;;;;;;;19.95;13.32;;;;;;;18.99;92.75;101461.13;5069450;28;20051;-68
2022/06/27 06:33:11;;;;;;;18.33;13.18;;;;;;;19.05;91.70;101471.38;5053717;28;20044;-68
2022/06/27 06:35:37;;;;;;;19.88;12.40;;;;;;;19.07;90.01;101466.69;5054296;28;20063;-68
2022/06/27 06:38:04;;;;;;;21.98;12.80;;;;;;;19.09;89.51;101477.38;5027012;28;20059;-69
2022/06/27 06:40:30;;;;;;;19.80;12.90;;;;;;;18.75;90.68;101493.88;5052679;28;20051;-68
2022/06/27 06:42:57;;;;;;;18.75;12.60;;;;;;;18.71;90.83;101497.81;5017665;28;20028;-69
2022/06/27 06:45:31;;;;;;;21.88;12.98;;;;;;;18.74;91.41;101483.22;5034207;28;20025;-70
2022/06/27 06:48:13;;;;;;;22.58;14.13;;;;;;;18.56;92.04;101470.25;5048555;28;20028;-68
2022/06/27 06:50:38;;;;;;;22.48;13.43;;;;;;;18.54;92.90;101468.72;5035101;28;20890;-69
2022/06/27 06:53:04;;;;;;;21.83;14.18;;;;;;;18.48;93.29;101466.53;5053112;28;20044;-68
2022/06/27 06:55:30;;;;;;;19.63;13.73;;;;;;;18.48;93.73;101485.44;5053132;28;20111;-69
2022/06/27 06:57:56;;;;;;;24.70;13.52;;;;;;;18.49;92.45;101493.41;5053506;28;20043;-70
2022/06/27 07:00:22;;;;;;;25.92;14.20;;;;;;;18.53;92.79;101492.16;5052719;28;20044;-69
2022/06/27 07:02:48;;;;;;;27.25;14.88;;;;;;;18.48;92.60;101497.09;5072142;28;20044;-70
2022/06/27 07:05:16;;;;;;;22.70;13.68;;;;;;;18.44;93.00;101487.56;5056396;28;20040;-68
2022/06/27 07:07:42;;;;;;;24.08;15.05;;;;;;;18.43;93.02;101485.00;5055054;28;20048;-69
2022/06/27 07:10:09;;;;;;;23.67;14.45;;;;;;;18.65;92.72;101484.81;5053819;28;20044;-69
2022/06/27 07:12:38;;;;;;;22.83;14.68;;;;;;;18.60;92.84;101481.66;5049163;28;20146;-69
2022/06/27 07:15:05;;;;;;;23.52;14.82;;;;;;;18.84;91.93;101463.34;5050846;28;20094;-69
2022/06/27 07:17:39;;;;;;;26.48;16.65;;;;;;;18.87;91.02;101452.25;5053749;28;20822;-68
2022/06/27 07:20:05;;;;;;;26.20;16.13;;;;;;;18.71;94.00;101437.53;5053706;28;20040;-68
2022/06/27 07:22:32;;;;;;;24.70;14.75;;;;;;;18.39;94.86;101427.69;5056623;28;20036;-68
2022/06/27 07:24:57;;;;;;;27.73;16.35;;;;;;;18.70;94.04;101416.91;5065598;28;20056;-68
2022/06/27 07:27:23;;;;;;;29.00;15.05;;;;;;;18.92;92.00;101416.69;5055635;28;20040;-67
2022/06/27 07:29:49;;;;;;;21.63;15.52;;;;;;;18.92;91.17;101413.16;5056991;28;20128;-68
2022/06/27 07:32:14;;;;;;;29.48;15.35;;;;;;;19.02;91.85;101412.19;5055710;28;20044;-68
2022/06/27 07:34:40;;;;;;;22.42;14.88;;;;;;;18.93;92.23;101415.72;5036363;28;20067;-68
2022/06/27 07:37:06;;;;;;;25.20;16.85;;;;;;;19.09;90.09;101417.91;5034346;28;20029;-68
2022/06/27 07:39:31;;;;;;;21.50;14.70;;;;;;;19.07;90.87;101420.72;5054262;28;20255;-68
2022/06/27 07:41:57;;;;;;;20.40;14.10;;;;;;;18.78;91.96;101423.34;5054474;28;20040;-68
2022/06/27 07:44:24;;;;;;;24.17;15.68;;;;;;;19.06;90.44;101427.13;5054410;28;20836;-68
2022/06/27 07:46:50;;;;;;;22.50;14.95;;;;;;;19.10;90.75;101422.31;5052253;28;20029;-67
2022/06/27 07:49:16;;;;;;;25.52;14.57;;;;;;;18.93;90.96;101423.00;5044466;28;20043;-68
2022/06/27 07:51:41;;;;;;;20.20;14.27;;;;;;;18.97;92.00;101427.09;5053543;28;20036;-68
2022/06/27 07:54:07;;;;;;;21.10;14.32;;;;;;;19.09;91.89;101440.38;5049107;28;20048;-68
2022/06/27 07:56:34;;;;;;;18.15;12.15;;;;;;;19.37;91.85;101460.38;5054229;28;20055;-68
2022/06/27 07:59:00;;;;;;;20.08;13.05;;;;;;;19.84;87.86;101486.84;5053584;28;20947;-68
2022/06/27 08:01:28;;;;;;;17.15;12.23;;;;;;;20.11;85.94;101491.53;5053110;28;20135;-68
2022/06/27 08:03:54;;;;;;;16.80;12.50;;;;;;;20.25;86.24;101487.53;5053742;28;20046;-67
2022/06/27 08:06:28;;;;;;;15.48;11.48;;;;;;;20.23;85.61;101476.84;5052264;28;20038;-68
2022/06/27 08:09:00;;;;;;;21.70;13.02;;;;;;;19.97;87.96;101468.44;5069151;28;20036;-68
2022/06/27 08:11:34;;;;;;;19.50;13.68;;;;;;;20.11;87.02;101462.59;5053568;28;20048;-68
2022/06/27 08:14:03;;;;;;;16.08;11.27;;;;;;;20.63;84.17;101457.69;5057217;28;20041;-68
2022/06/27 08:16:29;;;;;;;19.95;11.80;;;;;;;20.36;83.85;101454.84;5054825;28;20123;-68
2022/06/27 08:18:55;;;;;;;17.23;11.55;;;;;;;20.27;83.24;101462.00;5053055;28;20518;-67
2022/06/27 08:21:27;;;;;;;16.05;12.02;;;;;;;20.37;83.21;101481.78;5034178;28;20045;-68
2022/06/27 08:23:58;;;;;;;19.38;13.70;;;;;;;20.85;83.14;101510.69;5052712;28;20079;-68
2022/06/27 08:26:25;;;;;;;15.40;11.88;;;;;;;20.71;83.46;101523.84;5052754;28;20480;-68
2022/06/27 08:28:52;;;;;;;18.70;11.00;;;;;;;20.80;83.15;101537.38;5033824;28;20549;-68
2022/06/27 08:31:19;;;;;;;19.63;11.43;;;;;;;20.32;83.26;101550.94;5051281;28;20064;-68
2022/06/27 08:33:46;;;;;;;16.90;11.95;;;;;;;20.13;85.06;101554.50;5052046;28;20036;-68
2022/06/27 08:36:15;;;;;;;16.92;10.98;;;;;;;20.02;84.57;101557.34;5050143;28;20118;-68
2022/06/27 08:38:51;;;;;;;16.50;11.18;;;;;;;20.28;83.94;101560.34;5051294;28;20827;-68
2022/06/27 08:41:22;;;;;;;15.43;11.82;;;;;;;20.43;84.74;101570.66;5059644;28;20390;-68
2022/06/27 08:43:48;;;;;;;21.30;13.38;;;;;;;20.11;84.67;101567.34;5051906;28;20049;-68
2022/06/27 08:46:16;;;;;;;16.70;11.93;;;;;;;20.36;85.27;101571.34;5050569;28;20132;-67
2022/06/27 08:48:45;;;;;;;15.38;11.63;;;;;;;20.49;85.20;101555.69;5051705;28;20087;-67
2022/06/27 08:51:12;;;;;;;16.67;11.57;;;;;;;20.99;83.51;101539.19;5074429;28;21060;-68
2022/06/27 08:53:38;;;;;;;16.70;11.85;;;;;;;21.08;82.46;101540.13;5050712;28;20051;-67
2022/06/27 08:56:05;;;;;;;17.95;12.38;;;;;;;21.96;78.06;101533.25;5048707;28;20764;-68
2022/06/27 08:58:31;;;;;;;16.13;12.57;;;;;;;22.16;78.15;101536.69;5032351;28;20028;-68
2022/06/27 09:00:57;;;;;;;18.52;11.95;;;;;;;22.44;76.37;101535.59;5049809;28;20037;-68
2022/06/27 09:03:23;;;;;;;17.80;13.05;;;;;;;22.13;76.29;101539.72;5045825;28;20325;-68
2022/06/27 09:06:01;;;;;;;18.65;12.82;;;;;;;21.83;77.66;101552.63;5048326;28;20032;-67
2022/06/27 09:08:31;;;;;;;22.80;14.07;;;;;;;21.94;76.73;101559.72;5015387;28;20080;-68
2022/06/27 09:10:57;;;;;;;17.83;13.52;;;;;;;21.80;77.17;101547.50;5053101;28;20032;-68
2022/06/27 09:13:24;;;;;;;18.25;13.05;;;;;;;21.34;80.77;101543.06;5049177;28;20032;-68
2022/06/27 09:16:01;;;;;;;17.63;12.32;;;;;;;21.65;76.92;101530.03;5050151;28;20021;-68
2022/06/27 09:18:33;;;;;;;18.55;10.07;;;;;;;21.71;74.88;101532.13;5050819;28;20536;-68
2022/06/27 09:21:03;;;;;;;14.00;9.88;;;;;;;22.12;74.56;101538.00;5047914;28;20052;-68
2022/06/27 09:23:47;;;;;;;13.77;11.20;;;;;;;21.87;73.37;101539.59;5055787;28;20620;-68
2022/06/27 09:26:25;;;;;;;12.98;10.25;;;;;;;22.07;74.53;101524.84;5046010;28;20063;-68
2022/06/27 09:28:58;;;;;;;17.10;10.80;;;;;;;22.14;74.78;101530.53;5065558;28;20850;-68
2022/06/27 09:31:27;;;;;;;14.10;11.32;;;;;;;21.95;74.01;101547.84;5019908;28;20056;-68
2022/06/27 09:34:18;;;;;;;12.98;9.98;;;;;;;22.27;72.94;101579.09;5031213;28;20111;-68
2022/06/27 09:36:55;;;;;;;15.52;10.77;;;;;;;22.34;73.55;101578.31;5044423;28;20036;-68
2022/06/27 09:39:29;;;;;;;12.95;10.95;;;;;;;22.68;73.38;101567.53;5047772;28;20646;-68
2022/06/27 09:41:58;;;;;;;18.23;11.75;;;;;;;22.44;73.81;101568.22;5047539;28;20043;-68
2022/06/27 09:44:32;;;;;;;15.63;12.65;;;;;;;22.40;74.20;101552.38;5031130;28;20056;-68
2022/06/27 09:47:20;;;;;;;19.15;12.98;;;;;;;22.26;73.60;101555.63;5048831;28;20063;-68
2022/06/27 09:49:49;;;;;;;17.58;12.68;;;;;;;22.28;74.72;101554.47;5041785;28;20107;-68
2022/06/27 09:52:25;;;;;;;16.65;12.75;;;;;;;21.83;74.97;101559.91;5048491;28;20040;-68
2022/06/27 09:54:54;;;;;;;17.00;12.40;;;;;;;21.65;75.48;101559.91;5049401;28;20287;-68
2022/06/27 09:57:22;;;;;;;16.98;12.98;;;;;;;22.23;76.80;101565.78;5031182;28;20045;-68
2022/06/27 09:59:50;;;;;;;19.08;11.82;;;;;;;22.33;71.80;101571.16;5064559;28;20102;-68
2022/06/27 10:02:19;;;;;;;16.75;11.65;;;;;;;23.24;69.41;101565.34;5050744;28;20048;-68
2022/06/27 10:04:49;;;;;;;16.27;10.50;;;;;;;23.40;69.79;101568.19;5048603;28;20144;-68
2022/06/27 10:07:17;;;;;;;14.00;9.40;;;;;;;23.36;67.39;101560.50;5049963;28;20491;-68
2022/06/27 10:09:43;;;;;;;10.85;8.65;;;;;;;23.09;67.33;101559.66;5051128;28;20041;-69
2022/06/27 10:12:25;;;;;;;12.23;8.40;;;;;;;23.23;68.79;101555.50;5048089;28;20036;-69
2022/06/27 10:15:09;;;;;;;14.02;9.02;;;;;;;23.10;68.41;101561.41;5029461;28;20048;-69
2022/06/27 10:17:45;;;;;;;12.82;9.45;;;;;;;23.18;68.30;101555.13;5049143;28;20899;-69
2022/06/27 10:20:37;;;;;;;11.05;7.63;;;;;;;23.35;66.35;101542.47;5048708;28;20772;-69
2022/06/27 10:23:02;;;;;;;;;;;;;;;23.52;65.23;101531.47;5051519;28;20040;-69
2022/06/27 10:25:28;;;;;;;16.00;8.73;;;;;;;23.63;66.33;101530.34;5051950;28;19963;-69
2022/06/27 10:30:43;;;;;;;11.38;7.82;;;;;;;24.17;61.89;101533.50;5050982;28;20041;-69
2022/06/27 10:33:21;;;;;;;13.23;8.68;;;;;;;23.85;64.31;101531.59;5067285;28;20032;-69
2022/06/27 10:35:59;;;;;;;19.45;9.80;;;;;;;24.69;65.66;101533.16;5054343;28;20716;-69
2022/06/27 10:38:27;;;;;;;15.98;8.55;;;;;;;24.91;60.94;101523.44;5052237;28;20753;-69
2022/06/27 10:40:55;;;;;;;15.63;8.40;;;;;;;24.73;58.93;101517.31;5051597;28;20812;-69
2022/06/27 10:43:36;;;;;;;11.38;8.10;;;;;;;25.20;60.90;101509.22;5032650;28;20491;-69
2022/06/27 10:46:10;;;;;;;12.82;7.72;;;;;;;24.54;61.05;101515.81;5052823;28;20059;-69
2022/06/27 10:48:37;;;;;;;17.85;7.65;;;;;;;23.89;63.20;101513.88;5035570;28;20068;-69
2022/06/27 10:51:17;;;;;;;13.23;8.68;;;;;;;23.73;61.46;101514.72;5052591;28;20060;-68
2022/06/27 10:53:44;;;;;;;10.85;7.03;;;;;;;24.31;62.13;101506.59;5049064;28;20047;-69
2022/06/27 10:56:31;;;;;;;9.50;7.75;;;;;;;24.22;58.56;101514.78;5034248;28;20040;-68
2022/06/27 10:59:01;;;;;;;12.13;7.28;;;;;;;23.79;61.70;101499.56;5050353;28;20072;-69
2022/06/27 11:01:28;;;;;;;10.20;7.32;;;;;;;24.11;60.86;101500.66;5049883;28;20068;-68
2022/06/27 11:03:54;;;;;;;11.30;6.90;;;;;;;24.39;59.34;101501.16;5049780;28;20106;-68
2022/06/27 11:06:21;;;;;;;13.98;7.53;;;;;;;23.44;60.81;101500.63;5049213;28;20486;-68
2022/06/27 11:08:54;;;;;;;12.52;8.13;;;;;;;23.12;61.71;101507.66;5050901;28;20368;-67
2022/06/27 11:11:21;;;;;;;13.00;8.93;;;;;;;23.25;62.25;101504.50;5030483;28;20033;-68
2022/06/27 11:13:48;;;;;;;11.07;8.10;;;;;;;24.71;59.49;101517.50;5032646;28;20110;-68
2022/06/27 11:16:20;;;;;;;11.93;7.35;;;;;;;24.78;59.42;101523.94;5049092;28;20036;-68
2022/06/27 11:18:51;;;;;;;9.93;6.63;;;;;;;24.85;57.47;101520.53;5050297;28;20025;-68
2022/06/27 11:21:38;;;;;;;12.95;8.27;;;;;;;24.98;57.21;101510.78;5031396;28;20145;-68